sensor_id;sensor_type;location;lat;lon;timestamp;temperature;humidity
51175;DHT22;37240;50.104;20.010;2023-04-25T00:02:09;16.30;99.90
51175;DHT22;37240;50.104;20.010;2023-04-25T00:07:09;16.30;99.90
51175;DHT22;37240;50.104;20.010;2023-04-25T00:12:10;16.30;99.90
51175;DHT22;37240;50.104;20.010;2023-04-25T00:17:10;16.30;99.90
51175;DHT22;37240;50.104;20.010;2023-04-25T00:22:11;16.20;99.90
51175;DHT22;37240;50.104;20.010;2023-04-25T00:27:12;16.10;99.90
51175;DHT22;37240;50.104;20.010;2023-04-25T00:32:12;15.90;99.90
51175;DHT22;37240;50.104;20.010;2023-04-25T00:37:13;15.80;99.90
51175;DHT22;37240;50.104;20.010;2023-04-25T00:42:14;15.70;99.90
51175;DHT22;37240;50.104;20.010;2023-04-25T00:47:15;15.70;99.90
51175;DHT22;37240;50.104;20.010;2023-04-25T00:52:16;15.60;99.90
51175;DHT22;37240;50.104;20.010;2023-04-25T00:57:16;15.60;99.90
51175;DHT22;37240;50.104;20.010;2023-04-25T01:02:17;15.50;99.90
51175;DHT22;37240;50.104;20.010;2023-04-25T01:07:18;15.50;99.90
51175;DHT22;37240;50.104;20.010;2023-04-25T01:12:18;15.40;99.90
51175;DHT22;37240;50.104;20.010;2023-04-25T01:17:19;15.30;99.90
51175;DHT22;37240;50.104;20.010;2023-04-25T01:22:20;15.40;99.90
51175;DHT22;37240;50.104;20.010;2023-04-25T01:27:21;15.40;99.90
51175;DHT22;37240;50.104;20.010;2023-04-25T01:32:25;15.40;99.90
51175;DHT22;37240;50.104;20.010;2023-04-25T01:37:26;15.30;99.90
51175;DHT22;37240;50.104;20.010;2023-04-25T01:42:27;15.30;99.90
51175;DHT22;37240;50.104;20.010;2023-04-25T01:47:28;15.20;99.90
51175;DHT22;37240;50.104;20.010;2023-04-25T01:52:28;15.20;99.90
51175;DHT22;37240;50.104;20.010;2023-04-25T01:57:29;15.10;99.90
51175;DHT22;37240;50.104;20.010;2023-04-25T02:02:30;15.10;99.90
51175;DHT22;37240;50.104;20.010;2023-04-25T02:07:30;15.00;99.90
51175;DHT22;37240;50.104;20.010;2023-04-25T02:12:32;14.90;99.90
51175;DHT22;37240;50.104;20.010;2023-04-25T02:17:32;14.90;99.90
51175;DHT22;37240;50.104;20.010;2023-04-25T02:22:33;14.80;99.90
51175;DHT22;37240;50.104;20.010;2023-04-25T02:27:33;14.80;99.90
51175;DHT22;37240;50.104;20.010;2023-04-25T02:32:34;14.70;99.90
51175;DHT22;37240;50.104;20.010;2023-04-25T02:37:38;14.70;99.90
51175;DHT22;37240;50.104;20.010;2023-04-25T02:42:38;14.70;99.90
51175;DHT22;37240;50.104;20.010;2023-04-25T02:47:39;14.70;99.90
51175;DHT22;37240;50.104;20.010;2023-04-25T02:52:39;14.70;99.90
51175;DHT22;37240;50.104;20.010;2023-04-25T02:57:40;14.60;99.90
51175;DHT22;37240;50.104;20.010;2023-04-25T03:02:40;14.50;99.90
51175;DHT22;37240;50.104;20.010;2023-04-25T03:07:41;14.50;99.90
51175;DHT22;37240;50.104;20.010;2023-04-25T03:12:41;14.40;99.90
51175;DHT22;37240;50.104;20.010;2023-04-25T03:17:42;14.40;99.90
51175;DHT22;37240;50.104;20.010;2023-04-25T03:22:43;14.50;99.90
51175;DHT22;37240;50.104;20.010;2023-04-25T03:27:43;14.50;99.90
51175;DHT22;37240;50.104;20.010;2023-04-25T03:32:44;14.50;99.90
51175;DHT22;37240;50.104;20.010;2023-04-25T03:37:44;14.50;99.90
51175;DHT22;37240;50.104;20.010;2023-04-25T03:42:45;14.50;99.90
51175;DHT22;37240;50.104;20.010;2023-04-25T03:47:45;14.40;99.90
51175;DHT22;37240;50.104;20.010;2023-04-25T03:52:46;14.30;99.90
51175;DHT22;37240;50.104;20.010;2023-04-25T03:57:46;14.40;99.90
51175;DHT22;37240;50.104;20.010;2023-04-25T04:02:47;14.30;99.90
51175;DHT22;37240;50.104;20.010;2023-04-25T04:07:47;14.30;99.90
51175;DHT22;37240;50.104;20.010;2023-04-25T04:12:48;14.30;99.90
51175;DHT22;37240;50.104;20.010;2023-04-25T04:17:49;14.10;99.90
51175;DHT22;37240;50.104;20.010;2023-04-25T04:22:49;14.10;99.90
51175;DHT22;37240;50.104;20.010;2023-04-25T04:27:50;14.00;99.90
51175;DHT22;37240;50.104;20.010;2023-04-25T04:32:51;14.10;99.90
51175;DHT22;37240;50.104;20.010;2023-04-25T04:37:52;14.10;99.90
51175;DHT22;37240;50.104;20.010;2023-04-25T04:42:53;14.20;99.90
51175;DHT22;37240;50.104;20.010;2023-04-25T04:47:54;14.20;99.90
51175;DHT22;37240;50.104;20.010;2023-04-25T04:52:54;14.10;99.90
51175;DHT22;37240;50.104;20.010;2023-04-25T04:57:55;14.10;99.90
51175;DHT22;37240;50.104;20.010;2023-04-25T05:02:56;14.10;99.90
51175;DHT22;37240;50.104;20.010;2023-04-25T05:07:56;14.00;99.90
51175;DHT22;37240;50.104;20.010;2023-04-25T05:12:57;14.00;99.90
51175;DHT22;37240;50.104;20.010;2023-04-25T05:17:57;13.90;99.90
51175;DHT22;37240;50.104;20.010;2023-04-25T05:22:58;13.90;99.90
51175;DHT22;37240;50.104;20.010;2023-04-25T05:27:58;13.90;99.90
51175;DHT22;37240;50.104;20.010;2023-04-25T05:32:59;14.00;99.90
51175;DHT22;37240;50.104;20.010;2023-04-25T05:37:59;13.80;99.90
51175;DHT22;37240;50.104;20.010;2023-04-25T05:43:00;13.80;99.90
51175;DHT22;37240;50.104;20.010;2023-04-25T05:48:01;13.80;99.90
51175;DHT22;37240;50.104;20.010;2023-04-25T05:53:01;13.80;99.90
51175;DHT22;37240;50.104;20.010;2023-04-25T05:58:02;13.70;99.90
51175;DHT22;37240;50.104;20.010;2023-04-25T06:03:02;13.60;99.90
51175;DHT22;37240;50.104;20.010;2023-04-25T06:08:03;13.50;99.90
51175;DHT22;37240;50.104;20.010;2023-04-25T06:13:05;13.50;99.90
51175;DHT22;37240;50.104;20.010;2023-04-25T06:18:05;13.50;99.90
51175;DHT22;37240;50.104;20.010;2023-04-25T06:23:06;13.40;99.90
51175;DHT22;37240;50.104;20.010;2023-04-25T06:28:06;13.30;99.90
51175;DHT22;37240;50.104;20.010;2023-04-25T06:33:07;13.30;99.90
51175;DHT22;37240;50.104;20.010;2023-04-25T06:38:07;13.40;99.90
51175;DHT22;37240;50.104;20.010;2023-04-25T06:43:08;13.40;99.90
51175;DHT22;37240;50.104;20.010;2023-04-25T06:48:08;13.40;99.90
51175;DHT22;37240;50.104;20.010;2023-04-25T06:53:09;13.50;99.90
51175;DHT22;37240;50.104;20.010;2023-04-25T06:58:09;13.60;99.90
51175;DHT22;37240;50.104;20.010;2023-04-25T07:03:10;13.70;99.90
51175;DHT22;37240;50.104;20.010;2023-04-25T07:08:11;13.80;99.90
51175;DHT22;37240;50.104;20.010;2023-04-25T07:13:11;13.90;99.90
51175;DHT22;37240;50.104;20.010;2023-04-25T07:18:12;13.80;99.90
51175;DHT22;37240;50.104;20.010;2023-04-25T07:23:12;13.80;99.90
51175;DHT22;37240;50.104;20.010;2023-04-25T07:28:13;14.00;99.90
51175;DHT22;37240;50.104;20.010;2023-04-25T07:33:13;14.20;99.90
51175;DHT22;37240;50.104;20.010;2023-04-25T07:38:14;14.40;99.90
51175;DHT22;37240;50.104;20.010;2023-04-25T07:43:14;14.50;99.90
51175;DHT22;37240;50.104;20.010;2023-04-25T07:48:18;14.40;99.70
51175;DHT22;37240;50.104;20.010;2023-04-25T07:53:18;14.50;99.50
51175;DHT22;37240;50.104;20.010;2023-04-25T07:58:19;14.80;98.20
51175;DHT22;37240;50.104;20.010;2023-04-25T08:03:20;15.00;97.50
51175;DHT22;37240;50.104;20.010;2023-04-25T08:08:20;15.20;96.80
51175;DHT22;37240;50.104;20.010;2023-04-25T08:13:21;15.30;96.40
51175;DHT22;37240;50.104;20.010;2023-04-25T08:18:21;15.60;96.10
51175;DHT22;37240;50.104;20.010;2023-04-25T08:23:22;15.70;93.80
51175;DHT22;37240;50.104;20.010;2023-04-25T08:28:23;15.60;93.50
51175;DHT22;37240;50.104;20.010;2023-04-25T08:33:23;15.60;93.10
51175;DHT22;37240;50.104;20.010;2023-04-25T08:38:24;15.50;93.60
51175;DHT22;37240;50.104;20.010;2023-04-25T08:43:25;15.40;95.00
51175;DHT22;37240;50.104;20.010;2023-04-25T08:48:27;15.40;95.00
51175;DHT22;37240;50.104;20.010;2023-04-25T08:53:31;15.40;94.80
51175;DHT22;37240;50.104;20.010;2023-04-25T08:58:32;15.20;94.40
51175;DHT22;37240;50.104;20.010;2023-04-25T09:03:33;15.10;94.30
51175;DHT22;37240;50.104;20.010;2023-04-25T09:08:36;15.00;94.80
51175;DHT22;37240;50.104;20.010;2023-04-25T09:13:37;15.10;96.00
51175;DHT22;37240;50.104;20.010;2023-04-25T09:18:37;15.20;96.10
51175;DHT22;37240;50.104;20.010;2023-04-25T09:23:46;15.30;96.10
51175;DHT22;37240;50.104;20.010;2023-04-25T09:28:47;15.40;95.10
51175;DHT22;37240;50.104;20.010;2023-04-25T09:33:47;15.30;95.00
51175;DHT22;37240;50.104;20.010;2023-04-25T09:38:48;15.30;94.10
51175;DHT22;37240;50.104;20.010;2023-04-25T09:43:49;15.20;94.10
51175;DHT22;37240;50.104;20.010;2023-04-25T09:48:50;15.10;93.90
51175;DHT22;37240;50.104;20.010;2023-04-25T09:53:51;15.10;94.20
51175;DHT22;37240;50.104;20.010;2023-04-25T09:58:53;15.20;94.60
51175;DHT22;37240;50.104;20.010;2023-04-25T10:03:56;15.30;94.40
51175;DHT22;37240;50.104;20.010;2023-04-25T10:08:58;15.40;94.00
51175;DHT22;37240;50.104;20.010;2023-04-25T10:14:00;15.50;93.30
51175;DHT22;37240;50.104;20.010;2023-04-25T10:19:01;15.60;93.20
51175;DHT22;37240;50.104;20.010;2023-04-25T10:24:02;15.50;92.10
51175;DHT22;37240;50.104;20.010;2023-04-25T10:29:03;15.50;91.50
51175;DHT22;37240;50.104;20.010;2023-04-25T10:34:04;15.50;90.90
51175;DHT22;37240;50.104;20.010;2023-04-25T10:39:06;15.40;89.90
51175;DHT22;37240;50.104;20.010;2023-04-25T10:44:07;15.50;90.20
51175;DHT22;37240;50.104;20.010;2023-04-25T10:49:08;15.60;90.20
51175;DHT22;37240;50.104;20.010;2023-04-25T10:54:09;15.70;90.10
51175;DHT22;37240;50.104;20.010;2023-04-25T10:59:11;15.80;90.10
51175;DHT22;37240;50.104;20.010;2023-04-25T11:04:32;16.10;89.10
51175;DHT22;37240;50.104;20.010;2023-04-25T11:09:35;16.10;85.50
51175;DHT22;37240;50.104;20.010;2023-04-25T11:14:36;16.30;86.40
51175;DHT22;37240;50.104;20.010;2023-04-25T11:19:36;16.20;85.70
51175;DHT22;37240;50.104;20.010;2023-04-25T11:24:37;16.10;85.00
51175;DHT22;37240;50.104;20.010;2023-04-25T11:29:38;16.10;85.80
51175;DHT22;37240;50.104;20.010;2023-04-25T11:34:38;16.20;86.00
51175;DHT22;37240;50.104;20.010;2023-04-25T11:39:43;16.30;86.30
51175;DHT22;37240;50.104;20.010;2023-04-25T11:44:44;16.40;84.90
51175;DHT22;37240;50.104;20.010;2023-04-25T11:49:45;16.30;83.80
51175;DHT22;37240;50.104;20.010;2023-04-25T11:54:45;16.30;83.90
51175;DHT22;37240;50.104;20.010;2023-04-25T11:59:46;16.40;84.10
51175;DHT22;37240;50.104;20.010;2023-04-25T12:04:47;16.30;83.40
51175;DHT22;37240;50.104;20.010;2023-04-25T12:09:51;16.20;85.30
51175;DHT22;37240;50.104;20.010;2023-04-25T12:14:52;16.10;87.30
51175;DHT22;37240;50.104;20.010;2023-04-25T12:19:52;16.00;89.10
51175;DHT22;37240;50.104;20.010;2023-04-25T12:24:53;15.90;90.60
51175;DHT22;37240;50.104;20.010;2023-04-25T12:29:55;15.90;89.50
51175;DHT22;37240;50.104;20.010;2023-04-25T12:34:56;15.80;90.50
51175;DHT22;37240;50.104;20.010;2023-04-25T12:39:56;15.80;91.30
51175;DHT22;37240;50.104;20.010;2023-04-25T12:44:57;15.80;91.20
51175;DHT22;37240;50.104;20.010;2023-04-25T12:49:58;15.80;91.80
51175;DHT22;37240;50.104;20.010;2023-04-25T12:54:58;15.60;91.60
51175;DHT22;37240;50.104;20.010;2023-04-25T12:59:58;15.60;92.20
51175;DHT22;37240;50.104;20.010;2023-04-25T13:04:59;15.40;88.80
51175;DHT22;37240;50.104;20.010;2023-04-25T13:09:59;15.30;86.60
51175;DHT22;37240;50.104;20.010;2023-04-25T13:15:00;15.30;87.70
51175;DHT22;37240;50.104;20.010;2023-04-25T13:20:01;15.10;88.90
51175;DHT22;37240;50.104;20.010;2023-04-25T13:25:01;15.10;89.10
51175;DHT22;37240;50.104;20.010;2023-04-25T13:30:03;15.00;89.80
51175;DHT22;37240;50.104;20.010;2023-04-25T13:35:13;15.10;90.70
51175;DHT22;37240;50.104;20.010;2023-04-25T13:40:14;15.20;90.20
51175;DHT22;37240;50.104;20.010;2023-04-25T13:45:14;15.30;90.40
51175;DHT22;37240;50.104;20.010;2023-04-25T13:50:15;15.40;88.30
51175;DHT22;37240;50.104;20.010;2023-04-25T13:55:15;15.40;86.80
51175;DHT22;37240;50.104;20.010;2023-04-25T14:00:16;15.50;88.30
51175;DHT22;37240;50.104;20.010;2023-04-25T14:05:17;15.60;89.70
51175;DHT22;37240;50.104;20.010;2023-04-25T14:10:17;15.70;89.00
51175;DHT22;37240;50.104;20.010;2023-04-25T14:15:18;15.60;89.40
51175;DHT22;37240;50.104;20.010;2023-04-25T14:20:18;15.60;89.20
51175;DHT22;37240;50.104;20.010;2023-04-25T14:25:19;15.40;89.30
51175;DHT22;37240;50.104;20.010;2023-04-25T14:30:21;15.40;90.30
51175;DHT22;37240;50.104;20.010;2023-04-25T14:35:22;15.50;89.90
51175;DHT22;37240;50.104;20.010;2023-04-25T14:40:23;15.60;89.40
51175;DHT22;37240;50.104;20.010;2023-04-25T14:45:23;15.60;88.50
51175;DHT22;37240;50.104;20.010;2023-04-25T14:50:24;15.40;84.50
51175;DHT22;37240;50.104;20.010;2023-04-25T14:55:24;15.20;77.10
51175;DHT22;37240;50.104;20.010;2023-04-25T15:00:25;15.10;73.40
51175;DHT22;37240;50.104;20.010;2023-04-25T15:05:26;15.10;73.30
51175;DHT22;37240;50.104;20.010;2023-04-25T15:10:26;15.00;74.70
51175;DHT22;37240;50.104;20.010;2023-04-25T15:15:27;15.10;77.00
51175;DHT22;37240;50.104;20.010;2023-04-25T15:20:27;15.00;73.60
51175;DHT22;37240;50.104;20.010;2023-04-25T15:25:28;14.90;75.40
51175;DHT22;37240;50.104;20.010;2023-04-25T15:30:28;14.80;77.60
51175;DHT22;37240;50.104;20.010;2023-04-25T15:35:29;14.90;76.60
51175;DHT22;37240;50.104;20.010;2023-04-25T15:40:29;15.00;76.50
51175;DHT22;37240;50.104;20.010;2023-04-25T15:45:30;15.00;78.70
51175;DHT22;37240;50.104;20.010;2023-04-25T15:50:30;15.10;80.30
51175;DHT22;37240;50.104;20.010;2023-04-25T15:55:31;15.10;79.80
51175;DHT22;37240;50.104;20.010;2023-04-25T16:00:32;15.00;79.00
51175;DHT22;37240;50.104;20.010;2023-04-25T16:05:32;14.90;77.80
51175;DHT22;37240;50.104;20.010;2023-04-25T16:10:33;15.00;78.30
51175;DHT22;37240;50.104;20.010;2023-04-25T16:15:34;15.00;78.70
51175;DHT22;37240;50.104;20.010;2023-04-25T16:20:34;15.10;78.20
51175;DHT22;37240;50.104;20.010;2023-04-25T16:25:35;15.00;78.80
51175;DHT22;37240;50.104;20.010;2023-04-25T16:30:35;15.10;77.70
51175;DHT22;37240;50.104;20.010;2023-04-25T16:35:36;15.00;78.20
51175;DHT22;37240;50.104;20.010;2023-04-25T16:40:36;15.10;79.00
51175;DHT22;37240;50.104;20.010;2023-04-25T16:45:37;15.10;79.00
51175;DHT22;37240;50.104;20.010;2023-04-25T16:50:37;15.10;78.80
51175;DHT22;37240;50.104;20.010;2023-04-25T16:55:38;15.10;79.60
51175;DHT22;37240;50.104;20.010;2023-04-25T17:00:39;15.10;79.70
51175;DHT22;37240;50.104;20.010;2023-04-25T17:05:40;15.00;79.50
51175;DHT22;37240;50.104;20.010;2023-04-25T17:10:40;14.90;80.80
51175;DHT22;37240;50.104;20.010;2023-04-25T17:15:41;14.90;81.40
51175;DHT22;37240;50.104;20.010;2023-04-25T17:20:41;14.90;80.80
51175;DHT22;37240;50.104;20.010;2023-04-25T17:25:42;14.80;80.40
51175;DHT22;37240;50.104;20.010;2023-04-25T17:30:43;14.80;80.30
51175;DHT22;37240;50.104;20.010;2023-04-25T17:35:44;14.70;79.60
51175;DHT22;37240;50.104;20.010;2023-04-25T17:40:44;14.60;80.70
51175;DHT22;37240;50.104;20.010;2023-04-25T17:45:45;14.50;81.10
51175;DHT22;37240;50.104;20.010;2023-04-25T17:50:45;14.50;82.10
51175;DHT22;37240;50.104;20.010;2023-04-25T17:55:46;14.40;82.50
51175;DHT22;37240;50.104;20.010;2023-04-25T18:00:46;14.30;82.10
51175;DHT22;37240;50.104;20.010;2023-04-25T18:05:47;14.20;83.00
51175;DHT22;37240;50.104;20.010;2023-04-25T18:10:48;14.10;83.40
51175;DHT22;37240;50.104;20.010;2023-04-25T18:15:48;13.90;84.30
51175;DHT22;37240;50.104;20.010;2023-04-25T18:20:49;13.80;86.30
51175;DHT22;37240;50.104;20.010;2023-04-25T18:25:49;13.70;85.70
51175;DHT22;37240;50.104;20.010;2023-04-25T18:30:50;13.60;86.30
51175;DHT22;37240;50.104;20.010;2023-04-25T18:35:50;13.50;86.90
51175;DHT22;37240;50.104;20.010;2023-04-25T18:40:51;13.40;87.30
51175;DHT22;37240;50.104;20.010;2023-04-25T18:45:52;13.30;87.70
51175;DHT22;37240;50.104;20.010;2023-04-25T18:50:52;13.30;88.60
51175;DHT22;37240;50.104;20.010;2023-04-25T18:55:53;13.20;90.50
51175;DHT22;37240;50.104;20.010;2023-04-25T19:00:53;13.10;91.00
51175;DHT22;37240;50.104;20.010;2023-04-25T19:05:54;13.00;91.70
51175;DHT22;37240;50.104;20.010;2023-04-25T19:10:54;12.90;91.90
51175;DHT22;37240;50.104;20.010;2023-04-25T19:15:55;12.80;92.30
51175;DHT22;37240;50.104;20.010;2023-04-25T19:20:55;12.80;92.70
51175;DHT22;37240;50.104;20.010;2023-04-25T19:25:56;12.80;92.90
51175;DHT22;37240;50.104;20.010;2023-04-25T19:30:58;12.70;93.00
51175;DHT22;37240;50.104;20.010;2023-04-25T19:35:59;12.70;93.40
51175;DHT22;37240;50.104;20.010;2023-04-25T19:40:59;12.60;93.80
51175;DHT22;37240;50.104;20.010;2023-04-25T19:46:00;12.60;93.40
51175;DHT22;37240;50.104;20.010;2023-04-25T19:51:00;12.70;93.40
51175;DHT22;37240;50.104;20.010;2023-04-25T19:56:01;12.70;93.40
51175;DHT22;37240;50.104;20.010;2023-04-25T20:01:01;12.70;93.20
51175;DHT22;37240;50.104;20.010;2023-04-25T20:06:02;12.60;93.00
51175;DHT22;37240;50.104;20.010;2023-04-25T20:11:03;12.60;92.80
51175;DHT22;37240;50.104;20.010;2023-04-25T20:16:04;12.50;92.40
51175;DHT22;37240;50.104;20.010;2023-04-25T20:21:04;12.40;92.50
51175;DHT22;37240;50.104;20.010;2023-04-25T20:26:05;12.30;92.30
51175;DHT22;37240;50.104;20.010;2023-04-25T20:31:06;12.30;92.30
51175;DHT22;37240;50.104;20.010;2023-04-25T20:36:07;12.20;92.70
51175;DHT22;37240;50.104;20.010;2023-04-25T20:41:08;12.20;92.60
51175;DHT22;37240;50.104;20.010;2023-04-25T20:46:08;12.20;92.80
51175;DHT22;37240;50.104;20.010;2023-04-25T20:51:09;12.10;92.80
51175;DHT22;37240;50.104;20.010;2023-04-25T20:56:09;12.00;92.90
51175;DHT22;37240;50.104;20.010;2023-04-25T21:01:10;12.00;93.20
51175;DHT22;37240;50.104;20.010;2023-04-25T21:06:11;11.90;93.40
51175;DHT22;37240;50.104;20.010;2023-04-25T21:11:11;11.80;93.60
51175;DHT22;37240;50.104;20.010;2023-04-25T21:16:12;11.80;93.90
51175;DHT22;37240;50.104;20.010;2023-04-25T21:21:12;11.70;94.40
51175;DHT22;37240;50.104;20.010;2023-04-25T21:26:13;11.70;94.90
51175;DHT22;37240;50.104;20.010;2023-04-25T21:31:14;11.70;95.10
51175;DHT22;37240;50.104;20.010;2023-04-25T21:36:14;11.70;95.00
51175;DHT22;37240;50.104;20.010;2023-04-25T21:41:15;11.60;94.90
51175;DHT22;37240;50.104;20.010;2023-04-25T21:46:16;11.60;95.20
51175;DHT22;37240;50.104;20.010;2023-04-25T21:51:16;11.60;95.40
51175;DHT22;37240;50.104;20.010;2023-04-25T21:56:17;11.60;95.30
51175;DHT22;37240;50.104;20.010;2023-04-25T22:01:17;11.60;95.30
51175;DHT22;37240;50.104;20.010;2023-04-25T22:06:18;11.60;95.50
51175;DHT22;37240;50.104;20.010;2023-04-25T22:11:19;11.60;95.40
51175;DHT22;37240;50.104;20.010;2023-04-25T22:16:19;11.70;95.20
51175;DHT22;37240;50.104;20.010;2023-04-25T22:21:20;11.60;95.40
51175;DHT22;37240;50.104;20.010;2023-04-25T22:26:20;11.60;95.70
51175;DHT22;37240;50.104;20.010;2023-04-25T22:31:21;11.70;96.00
51175;DHT22;37240;50.104;20.010;2023-04-25T22:36:21;11.70;96.00
51175;DHT22;37240;50.104;20.010;2023-04-25T22:41:22;11.70;96.40
51175;DHT22;37240;50.104;20.010;2023-04-25T22:46:22;11.70;96.50
51175;DHT22;37240;50.104;20.010;2023-04-25T22:51:23;11.70;96.50
51175;DHT22;37240;50.104;20.010;2023-04-25T22:56:23;11.80;96.50
51175;DHT22;37240;50.104;20.010;2023-04-25T23:01:24;11.80;96.20
51175;DHT22;37240;50.104;20.010;2023-04-25T23:06:24;11.70;96.50
51175;DHT22;37240;50.104;20.010;2023-04-25T23:11:25;11.80;96.50
51175;DHT22;37240;50.104;20.010;2023-04-25T23:16:25;11.80;96.50
51175;DHT22;37240;50.104;20.010;2023-04-25T23:21:26;11.80;96.90
51175;DHT22;37240;50.104;20.010;2023-04-25T23:26:27;11.80;96.90
51175;DHT22;37240;50.104;20.010;2023-04-25T23:31:27;11.80;97.00
51175;DHT22;37240;50.104;20.010;2023-04-25T23:36:28;11.70;97.40
51175;DHT22;37240;50.104;20.010;2023-04-25T23:41:28;11.70;97.50
51175;DHT22;37240;50.104;20.010;2023-04-25T23:46:29;11.70;97.60
51175;DHT22;37240;50.104;20.010;2023-04-25T23:51:30;11.70;97.70
51175;DHT22;37240;50.104;20.010;2023-04-25T23:56:30;11.70;97.60
